Time;durP1;ratioP1;P1;durP2;ratioP2;P2;SDS_P1;SDS_P2;PMS_P1;PMS_P2;Temp;Humidity;BMP_temperature;BMP_pressure;BME280_temperature;BME280_humidity;BME280_pressure;Samples;Min_cycle;Max_cycle;Signal;HPM_P1;HPM_P2
2023/11/28 00:00:58;;;;;;;16.27;9.20;;;;;;;0.72;100.00;99024.57;1447585;90;21867;-75
2023/11/28 00:03:24;;;;;;;18.27;9.03;;;;;;;0.72;100.00;99021.97;1453923;90;21997;-74
2023/11/28 00:05:50;;;;;;;17.07;9.13;;;;;;;0.66;100.00;99014.16;1449964;90;21754;-73
2023/11/28 00:08:20;;;;;;;18.00;10.53;;;;;;;0.66;100.00;99006.79;1448160;90;21898;-74
2023/11/28 00:10:44;;;;;;;17.63;11.17;;;;;;;0.62;100.00;99002.78;1450928;90;21898;-74
2023/11/28 00:13:11;;;;;;;20.60;10.63;;;;;;;0.61;100.00;99002.44;1450043;90;21779;-74
2023/11/28 00:15:37;;;;;;;19.63;11.03;;;;;;;0.62;100.00;98994.97;1454111;90;22650;-75
2023/11/28 00:18:04;;;;;;;20.60;10.50;;;;;;;0.63;100.00;98996.17;1460942;90;21925;-75
2023/11/28 00:20:30;;;;;;;16.57;10.03;;;;;;;0.64;100.00;98991.30;1455218;89;21871;-74
2023/11/28 00:22:57;;;;;;;20.20;11.83;;;;;;;0.65;100.00;98990.83;1448692;90;21676;-75
2023/11/28 00:25:23;;;;;;;21.73;10.97;;;;;;;0.64;100.00;98986.09;1456025;90;22760;-76
2023/11/28 00:27:50;;;;;;;16.67;10.37;;;;;;;0.62;100.00;98989.77;1455524;90;21739;-76
2023/11/28 00:30:16;;;;;;;19.80;11.17;;;;;;;0.62;100.00;98988.46;1458837;90;21740;-75
2023/11/28 00:32:43;;;;;;;15.50;10.23;;;;;;;0.62;100.00;98982.77;1457578;90;22668;-75
2023/11/28 00:35:10;;;;;;;19.93;10.87;;;;;;;0.64;100.00;98985.27;1454413;89;21778;-75
2023/11/28 00:37:38;;;;;;;20.97;11.30;;;;;;;0.63;100.00;98980.99;1451617;90;21823;-75
2023/11/28 00:40:11;;;;;;;17.07;10.87;;;;;;;0.66;100.00;98980.75;1458648;90;21758;-75
2023/11/28 00:42:33;;;;;;;19.93;10.43;;;;;;;0.66;100.00;98975.09;1455377;89;21994;-75
2023/11/28 00:45:00;;;;;;;18.17;10.60;;;;;;;0.64;100.00;98975.68;1455066;90;21830;-75
2023/11/28 00:47:26;;;;;;;20.10;12.17;;;;;;;0.61;100.00;98968.59;1451565;90;21766;-75
2023/11/28 00:49:53;;;;;;;18.07;11.03;;;;;;;0.62;100.00;98966.33;1452504;90;22814;-75
2023/11/28 00:52:19;;;;;;;18.03;11.60;;;;;;;0.63;100.00;98965.37;1461070;90;22314;-75
2023/11/28 00:54:45;;;;;;;17.47;10.23;;;;;;;0.66;100.00;98965.13;1434785;90;21852;-75
2023/11/28 00:57:11;;;;;;;18.80;11.57;;;;;;;0.66;100.00;98959.92;1458064;90;21707;-75
2023/11/28 00:59:37;;;;;;;17.60;11.23;;;;;;;0.67;100.00;98957.69;1458607;90;23122;-76
2023/11/28 01:02:08;;;;;;;20.50;12.50;;;;;;;0.66;100.00;98959.92;1447913;90;21716;-75
2023/11/28 01:04:35;;;;;;;20.68;12.10;;;;;;;0.65;100.00;98954.37;1452992;90;22594;-75
2023/11/28 01:07:02;;;;;;;25.50;14.60;;;;;;;0.66;100.00;98957.31;1455984;90;21538;-75
2023/11/28 01:09:28;;;;;;;17.00;10.70;;;;;;;0.64;100.00;98948.82;1451736;90;22612;-75
2023/11/28 01:11:55;;;;;;;20.00;12.47;;;;;;;0.67;100.00;98942.89;1453283;90;21770;-75
2023/11/28 01:14:21;;;;;;;20.13;11.93;;;;;;;0.71;100.00;98929.62;1449548;90;22009;-75
2023/11/28 01:16:47;;;;;;;20.40;11.83;;;;;;;0.70;100.00;98914.48;1454355;90;21727;-76
2023/11/28 01:19:14;;;;;;;20.20;10.10;;;;;;;0.69;100.00;98906.30;1458295;90;22793;-75
2023/11/28 01:21:40;;;;;;;19.60;11.80;;;;;;;0.65;100.00;98890.58;1451931;90;21762;-76
2023/11/28 01:24:06;;;;;;;22.50;12.53;;;;;;;0.60;100.00;98888.80;1456281;90;21768;-76
2023/11/28 01:26:33;;;;;;;22.07;14.73;;;;;;;0.58;100.00;98890.72;1453903;90;22260;-74
2023/11/28 01:28:59;;;;;;;19.73;12.13;;;;;;;0.61;100.00;98887.87;1450804;90;21778;-75
2023/11/28 01:31:27;;;;;;;16.50;11.03;;;;;;;0.63;100.00;98884.66;1454559;90;21741;-75
2023/11/28 01:33:53;;;;;;;19.57;12.67;;;;;;;0.62;100.00;98875.20;1456073;90;22687;-75
2023/11/28 01:36:20;;;;;;;16.70;10.73;;;;;;;0.60;100.00;98866.67;1450904;90;21782;-75
2023/11/28 01:38:46;;;;;;;19.33;11.37;;;;;;;0.63;100.00;98852.96;1455095;90;21860;-76
2023/11/28 01:41:13;;;;;;;17.07;11.53;;;;;;;0.63;100.00;98852.96;1457307;90;21802;-75
2023/11/28 01:43:39;;;;;;;20.83;12.47;;;;;;;0.67;100.00;98849.63;1451197;90;22669;-75
2023/11/28 01:46:09;;;;;;;19.80;12.57;;;;;;;0.66;100.00;98857.06;1450726;90;21706;-75
2023/11/28 01:48:36;;;;;;;16.32;11.50;;;;;;;0.67;100.00;98847.84;1449886;90;21726;-75
2023/11/28 01:51:03;;;;;;;14.83;10.07;;;;;;;0.70;100.00;98853.28;1457278;90;21508;-74
2023/11/28 01:53:31;;;;;;;16.03;10.63;;;;;;;0.74;100.00;98858.59;1455203;90;21836;-75
2023/11/28 01:55:58;;;;;;;18.67;12.70;;;;;;;0.76;100.00;98851.48;1431674;90;21929;-75
2023/11/28 01:58:25;;;;;;;17.40;10.03;;;;;;;0.79;100.00;98835.61;1433368;90;21748;-75
2023/11/28 02:00:51;;;;;;;16.13;10.37;;;;;;;0.75;100.00;98829.01;1456536;90;22565;-75
2023/11/28 02:03:20;;;;;;;17.80;10.83;;;;;;;0.74;100.00;98813.02;1454681;90;22808;-74
2023/11/28 02:05:47;;;;;;;19.70;10.10;;;;;;;0.71;100.00;98809.36;1455597;90;21717;-75
2023/11/28 02:08:13;;;;;;;17.87;11.97;;;;;;;0.67;100.00;98795.77;1451323;90;21947;-74
2023/11/28 02:10:39;;;;;;;19.37;10.83;;;;;;;0.67;100.00;98795.77;1448694;90;21907;-74
2023/11/28 02:13:07;;;;;;;15.20;9.80;;;;;;;0.69;100.00;98799.53;1453973;90;21897;-74
2023/11/28 02:15:44;;;;;;;17.80;11.20;;;;;;;0.72;100.00;98799.31;1456927;90;22635;-74
2023/11/28 02:18:12;;;;;;;16.00;10.80;;;;;;;0.72;100.00;98792.80;1455823;90;21996;-75
2023/11/28 02:20:40;;;;;;;19.20;11.97;;;;;;;0.71;100.00;98792.43;1449413;90;21854;-75
2023/11/28 02:23:07;;;;;;;16.63;11.40;;;;;;;0.70;100.00;98788.19;1458404;90;21786;-75
2023/11/28 02:25:49;;;;;;;18.93;11.57;;;;;;;0.70;100.00;98776.95;1456986;90;21725;-75
2023/11/28 02:28:22;;;;;;;17.10;10.83;;;;;;;0.67;100.00;98774.11;1453687;90;22620;-76
2023/11/28 02:30:48;;;;;;;19.23;10.33;;;;;;;0.69;100.00;98764.38;1456553;90;21697;-77
2023/11/28 02:33:16;;;;;;;16.83;10.27;;;;;;;0.72;100.00;98759.40;1456721;90;22750;-75
2023/11/28 02:35:43;;;;;;;19.70;11.70;;;;;;;0.74;100.00;98744.00;1461010;90;22850;-75
2023/11/28 02:38:09;;;;;;;16.87;10.63;;;;;;;0.72;100.00;98740.72;1454867;90;21855;-75
2023/11/28 02:40:35;;;;;;;16.00;10.60;;;;;;;0.67;100.00;98735.87;1434683;90;21863;-76
2023/11/28 02:43:01;;;;;;;17.30;10.13;;;;;;;0.65;100.00;98733.05;1451945;90;21675;-76
2023/11/28 02:45:28;;;;;;;18.53;12.30;;;;;;;0.61;100.00;98723.36;1453665;90;22699;-76
2023/11/28 02:47:54;;;;;;;21.93;10.90;;;;;;;0.63;100.00;98710.20;1457686;90;21556;-77
2023/11/28 02:50:20;;;;;;;16.93;10.63;;;;;;;0.65;100.00;98710.91;1452718;90;21699;-76
2023/11/28 02:52:46;;;;;;;17.57;10.13;;;;;;;0.70;100.00;98708.77;1455220;90;21737;-77
2023/11/28 02:55:12;;;;;;;18.10;10.57;;;;;;;0.74;100.00;98694.52;1452839;90;21799;-77
2023/11/28 02:57:38;;;;;;;14.67;10.63;;;;;;;0.75;100.00;98694.89;1432377;90;21674;-77
2023/11/28 03:00:07;;;;;;;20.27;12.17;;;;;;;0.74;100.00;98685.89;1452625;90;21724;-77
2023/11/28 03:02:36;;;;;;;14.17;9.87;;;;;;;0.74;100.00;98686.71;1442823;90;22181;-76
2023/11/28 03:05:04;;;;;;;15.27;10.50;;;;;;;0.74;100.00;98678.90;1448263;90;21853;-77
2023/11/28 03:07:32;;;;;;;22.73;12.10;;;;;;;0.71;100.00;98663.53;1455137;90;22536;-76
2023/11/28 03:09:58;;;;;;;16.90;10.53;;;;;;;0.72;100.00;98661.30;1457696;90;21767;-76
2023/11/28 03:12:25;;;;;;;13.90;9.40;;;;;;;0.72;100.00;98654.79;1460124;90;21796;-77
2023/11/28 03:14:51;;;;;;;16.10;10.67;;;;;;;0.75;100.00;98659.73;1451976;90;21666;-76
2023/11/28 03:17:17;;;;;;;15.17;10.87;;;;;;;0.77;100.00;98648.69;1457916;90;22045;-76
2023/11/28 03:19:43;;;;;;;13.77;9.23;;;;;;;0.80;100.00;98651.03;1453641;90;21725;-75
2023/11/28 03:22:09;;;;;;;12.93;8.73;;;;;;;0.83;100.00;98636.45;1457078;90;21772;-75
2023/11/28 03:24:36;;;;;;;13.40;8.70;;;;;;;0.80;100.00;98630.69;1458573;90;22828;-76
2023/11/28 03:27:02;;;;;;;12.53;9.50;;;;;;;0.91;100.00;98638.42;1453479;90;21985;-77
2023/11/28 03:29:28;;;;;;;14.27;9.23;;;;;;;0.96;100.00;98640.16;1441495;90;21922;-75
2023/11/28 03:31:54;;;;;;;14.10;9.47;;;;;;;0.97;100.00;98634.47;1454768;90;22702;-76
2023/11/28 03:34:21;;;;;;;15.63;9.77;;;;;;;0.95;100.00;98634.62;1456555;90;22873;-76
2023/11/28 03:36:50;;;;;;;15.83;10.40;;;;;;;0.95;100.00;98623.34;1443477;90;21727;-75
2023/11/28 03:39:17;;;;;;;14.83;10.70;;;;;;;0.97;100.00;98624.05;1448176;89;22607;-76
2023/11/28 03:41:48;;;;;;;16.17;10.33;;;;;;;0.98;100.00;98624.39;1458453;90;22695;-76
2023/11/28 03:44:15;;;;;;;15.47;9.17;;;;;;;1.04;100.00;98622.59;1459992;89;21778;-75
2023/11/28 03:46:41;;;;;;;14.33;9.57;;;;;;;1.08;100.00;98629.17;1460941;90;21808;-75
2023/11/28 03:49:08;;;;;;;12.23;7.77;;;;;;;1.14;100.00;98627.34;1456653;90;23022;-75
2023/11/28 03:51:36;;;;;;;14.00;8.77;;;;;;;1.16;100.00;98615.50;1455443;90;21755;-75
2023/11/28 03:54:03;;;;;;;13.53;8.83;;;;;;;1.16;100.00;98605.89;1451783;90;22927;-76
2023/11/28 03:56:29;;;;;;;13.17;8.60;;;;;;;1.16;100.00;98605.89;1450745;90;22187;-75
2023/11/28 03:58:55;;;;;;;15.93;10.27;;;;;;;1.12;100.00;98594.06;1458462;90;22658;-76
2023/11/28 04:01:23;;;;;;;12.13;9.07;;;;;;;1.11;100.00;98595.86;1454976;90;21850;-75
2023/11/28 04:03:49;;;;;;;13.63;8.73;;;;;;;1.19;100.00;98590.48;1438443;90;21803;-74
2023/11/28 04:06:16;;;;;;;14.53;9.33;;;;;;;1.19;100.00;98590.48;1452453;90;22660;-75
2023/11/28 04:08:42;;;;;;;13.50;8.77;;;;;;;1.22;100.00;98587.12;1456257;90;22023;-75
2023/11/28 04:11:08;;;;;;;16.30;8.40;;;;;;;1.24;100.00;98577.39;1461356;90;21985;-76
2023/11/28 04:13:35;;;;;;;16.30;8.23;;;;;;;1.27;100.00;98571.91;1457124;90;21889;-75
2023/11/28 04:16:01;;;;;;;12.80;8.33;;;;;;;1.29;100.00;98569.97;1448760;90;21801;-74
2023/11/28 04:18:30;;;;;;;10.57;7.03;;;;;;;1.28;100.00;98561.82;1456768;90;22935;-75
2023/11/28 04:20:57;;;;;;;12.83;8.97;;;;;;;1.25;100.00;98552.97;1457896;90;23045;-74
2023/11/28 04:23:23;;;;;;;15.47;8.40;;;;;;;1.20;100.00;98534.30;1453393;90;21860;-75
2023/11/28 04:25:50;;;;;;;9.93;7.43;;;;;;;1.20;100.00;98534.30;1462541;90;21932;-75
2023/11/28 04:28:16;;;;;;;13.87;8.80;;;;;;;1.28;100.00;98544.87;1452837;90;21875;-75
2023/11/28 04:30:42;;;;;;;12.97;8.23;;;;;;;1.31;100.00;98544.61;1449443;90;22709;-75
2023/11/28 04:33:08;;;;;;;12.97;7.97;;;;;;;1.31;100.00;98544.61;1456134;90;22002;-75
2023/11/28 04:35:35;;;;;;;13.77;7.63;;;;;;;1.33;100.00;98530.97;1457804;90;22978;-75
2023/11/28 04:38:01;;;;;;;11.10;7.93;;;;;;;1.35;100.00;98541.24;1451725;90;21979;-75
2023/11/28 04:40:28;;;;;;;18.77;8.83;;;;;;;1.38;100.00;98539.67;1448458;90;21871;-76
2023/11/28 04:42:54;;;;;;;11.90;8.47;;;;;;;1.40;100.00;98517.39;1447676;90;21784;-77
2023/11/28 04:45:21;;;;;;;14.63;9.20;;;;;;;1.37;100.00;98513.75;1452541;90;22663;-75
2023/11/28 04:47:47;;;;;;;11.77;8.00;;;;;;;1.35;100.00;98513.88;1459914;90;22924;-75
2023/11/28 04:50:14;;;;;;;14.40;8.47;;;;;;;1.32;100.00;98508.94;1456098;90;21806;-76
2023/11/28 04:52:40;;;;;;;13.90;8.43;;;;;;;1.34;100.00;98502.63;1460742;90;21929;-75
2023/11/28 04:55:07;;;;;;;13.30;8.73;;;;;;;1.34;100.00;98488.78;1451925;90;22386;-75
2023/11/28 04:57:33;;;;;;;12.00;7.43;;;;;;;1.41;100.00;98482.53;1455679;89;22298;-76
2023/11/28 04:59:59;;;;;;;12.67;7.43;;;;;;;1.38;100.00;98471.08;1456877;90;21911;-76
2023/11/28 05:02:25;;;;;;;14.17;8.83;;;;;;;1.40;100.00;98463.95;1459965;90;22102;-76
2023/11/28 05:04:51;;;;;;;14.87;9.47;;;;;;;1.38;100.00;98458.05;1459237;90;21918;-75
2023/11/28 05:07:18;;;;;;;18.43;10.60;;;;;;;1.33;100.00;98453.27;1446859;90;21841;-75
2023/11/28 05:09:44;;;;;;;19.20;10.37;;;;;;;1.30;100.00;98451.75;1454806;90;21697;-75
2023/11/28 05:12:10;;;;;;;18.57;9.47;;;;;;;1.35;100.00;98453.92;1452456;90;23331;-76
2023/11/28 05:14:36;;;;;;;12.97;8.37;;;;;;;1.38;100.00;98458.86;1452749;90;21802;-75
2023/11/28 05:17:06;;;;;;;11.40;8.17;;;;;;;1.49;100.00;98454.81;1452079;90;21875;-75
2023/11/28 05:19:32;;;;;;;11.83;8.53;;;;;;;1.53;100.00;98443.66;1452525;90;22725;-75
2023/11/28 05:21:59;;;;;;;15.00;9.00;;;;;;;1.53;100.00;98443.66;1442998;90;22118;-74
2023/11/28 05:24:25;;;;;;;12.40;8.60;;;;;;;1.53;100.00;98440.56;1454712;90;21846;-74
2023/11/28 05:26:51;;;;;;;11.87;7.43;;;;;;;1.49;100.00;98440.96;1452323;90;21856;-75
2023/11/28 05:29:18;;;;;;;17.53;8.33;;;;;;;1.49;100.00;98440.96;1460675;90;22259;-75
2023/11/28 05:31:44;;;;;;;10.53;7.97;;;;;;;1.51;100.00;98437.26;1458383;90;21778;-74
2023/11/28 05:34:11;;;;;;;12.60;8.60;;;;;;;1.50;100.00;98438.72;1455151;90;21786;-75
2023/11/28 05:36:38;;;;;;;12.43;7.77;;;;;;;1.54;100.00;98438.77;1432722;89;22476;-76
2023/11/28 05:39:04;;;;;;;11.40;8.47;;;;;;;1.55;100.00;98436.49;1449151;90;22270;-75
2023/11/28 05:41:31;;;;;;;12.20;8.60;;;;;;;1.58;100.00;98424.48;1454456;90;22734;-75
2023/11/28 05:43:57;;;;;;;17.70;9.93;;;;;;;1.65;100.00;98428.19;1454753;90;22113;-75
2023/11/28 05:46:23;;;;;;;18.20;10.53;;;;;;;1.67;100.00;98426.27;1455784;90;21958;-76
2023/11/28 05:48:49;;;;;;;24.70;13.67;;;;;;;1.65;100.00;98421.67;1435542;90;21904;-75
2023/11/28 05:51:15;;;;;;;17.07;11.23;;;;;;;1.67;100.00;98417.60;1443824;90;21935;-75
2023/11/28 05:53:41;;;;;;;17.70;9.80;;;;;;;1.70;100.00;98427.78;1454080;89;22308;-75
2023/11/28 05:56:10;;;;;;;16.73;9.97;;;;;;;1.67;100.00;98422.36;1457578;90;21766;-75
2023/11/28 05:58:36;;;;;;;14.33;10.00;;;;;;;1.67;100.00;98422.36;1456173;90;23090;-75
2023/11/28 06:01:03;;;;;;;13.77;9.50;;;;;;;1.64;100.00;98423.95;1453310;90;21933;-75
2023/11/28 06:03:29;;;;;;;15.10;9.20;;;;;;;1.61;100.00;98419.47;1456290;90;22956;-76
2023/11/28 06:05:56;;;;;;;14.73;10.17;;;;;;;1.56;100.00;98416.00;1448199;90;21777;-75
2023/11/28 06:08:22;;;;;;;14.40;9.50;;;;;;;1.54;100.00;98420.52;1454820;90;22284;-76
2023/11/28 06:10:50;;;;;;;12.57;9.10;;;;;;;1.50;100.00;98415.25;1454809;90;22046;-76
2023/11/28 06:13:17;;;;;;;15.30;9.67;;;;;;;1.45;100.00;98407.84;1453597;90;22128;-75
2023/11/28 06:15:43;;;;;;;18.13;10.43;;;;;;;1.45;100.00;98407.84;1454306;90;22287;-75
2023/11/28 06:18:10;;;;;;;16.77;10.73;;;;;;;1.41;100.00;98414.30;1456835;90;21801;-76
2023/11/28 06:20:37;;;;;;;15.50;10.70;;;;;;;1.38;100.00;98423.67;1457486;90;21850;-76
2023/11/28 06:23:08;;;;;;;16.80;11.13;;;;;;;1.35;100.00;98422.19;1453977;90;21831;-77
2023/11/28 06:25:32;;;;;;;16.77;11.90;;;;;;;1.38;100.00;98429.38;1458878;90;22005;-77
2023/11/28 06:27:58;;;;;;;20.77;13.47;;;;;;;1.38;100.00;98429.38;1439759;90;21985;-76
2023/11/28 06:30:24;;;;;;;17.97;12.40;;;;;;;1.42;100.00;98434.67;1454110;90;21662;-76
2023/11/28 06:32:51;;;;;;;22.63;12.33;;;;;;;1.45;100.00;98443.03;1459675;90;21899;-75
2023/11/28 06:35:17;;;;;;;17.93;12.37;;;;;;;1.41;100.00;98434.31;1444657;90;23003;-76
2023/11/28 06:37:44;;;;;;;16.13;10.97;;;;;;;1.47;100.00;98446.81;1460317;90;22775;-76
2023/11/28 06:40:11;;;;;;;24.03;14.23;;;;;;;1.47;100.00;98446.81;1451189;90;21884;-76
2023/11/28 06:42:38;;;;;;;30.93;19.93;;;;;;;1.39;100.00;98437.55;1433125;90;22883;-76
2023/11/28 06:45:05;;;;;;;35.03;22.73;;;;;;;1.38;100.00;98448.92;1452451;90;21742;-76
2023/11/28 06:47:32;;;;;;;30.40;19.27;;;;;;;1.35;100.00;98451.32;1459004;89;22661;-76
2023/11/28 06:49:58;;;;;;;18.67;12.70;;;;;;;1.35;100.00;98430.47;1459327;90;21997;-76
2023/11/28 06:52:24;;;;;;;18.53;11.77;;;;;;;1.35;100.00;98430.47;1449450;90;21898;-76
2023/11/28 06:54:50;;;;;;;18.17;11.97;;;;;;;1.35;100.00;98427.41;1443947;90;21973;-76
2023/11/28 06:57:17;;;;;;;21.90;13.77;;;;;;;1.35;100.00;98427.41;1448377;90;21779;-76
2023/11/28 06:59:43;;;;;;;16.83;11.43;;;;;;;1.42;100.00;98422.94;1450137;90;22794;-76
2023/11/28 07:02:09;;;;;;;18.00;12.23;;;;;;;1.43;100.00;98407.14;1446526;90;21907;-76
2023/11/28 07:04:35;;;;;;;19.53;12.57;;;;;;;1.43;100.00;98407.14;1458827;90;22101;-77
2023/11/28 07:07:01;;;;;;;21.10;12.93;;;;;;;1.39;100.00;98401.06;1454810;90;21865;-77
2023/11/28 07:09:27;;;;;;;19.63;13.13;;;;;;;1.39;100.00;98401.06;1457902;90;21927;-75
2023/11/28 07:11:53;;;;;;;19.17;14.03;;;;;;;1.37;100.00;98399.06;1451326;90;21912;-76
2023/11/28 07:14:20;;;;;;;20.03;12.43;;;;;;;1.32;100.00;98392.50;1448725;90;21852;-76
2023/11/28 07:16:47;;;;;;;22.17;13.77;;;;;;;1.28;100.00;98380.69;1455697;90;21770;-76
2023/11/28 07:19:14;;;;;;;20.23;14.07;;;;;;;1.28;100.00;98380.69;1454161;90;21775;-77
2023/11/28 07:21:40;;;;;;;17.80;12.83;;;;;;;1.25;100.00;98371.84;1450525;90;21814;-76
2023/11/28 07:24:07;;;;;;;20.27;13.47;;;;;;;1.22;100.00;98368.70;1449119;90;21847;-76
2023/11/28 07:26:34;;;;;;;18.37;12.93;;;;;;;1.27;100.00;98376.45;1451363;90;22698;-76
2023/11/28 07:29:00;;;;;;;20.43;13.50;;;;;;;1.25;100.00;98376.24;1429720;90;21842;-76
2023/11/28 07:31:28;;;;;;;20.27;13.63;;;;;;;1.25;100.00;98376.24;1455464;90;21833;-76
2023/11/28 07:33:54;;;;;;;23.93;15.57;;;;;;;1.25;100.00;98376.24;1458075;90;21862;-77
2023/11/28 07:36:20;;;;;;;23.43;13.97;;;;;;;1.30;100.00;98375.34;1450479;90;21953;-76
2023/11/28 07:38:48;;;;;;;23.77;14.53;;;;;;;1.30;100.00;98376.66;1444840;90;21774;-76
2023/11/28 07:41:15;;;;;;;26.63;15.37;;;;;;;1.30;100.00;98376.66;1454410;89;21965;-77
2023/11/28 07:43:42;;;;;;;22.20;15.47;;;;;;;1.26;100.00;98373.48;1446913;90;21890;-76
2023/11/28 07:46:10;;;;;;;22.63;15.30;;;;;;;1.26;100.00;98373.48;1482511;90;21679;-76
2023/11/28 07:48:36;;;;;;;25.67;15.77;;;;;;;1.26;100.00;98381.78;1379542;90;21759;-77
2023/11/28 07:51:03;;;;;;;28.00;17.23;;;;;;;1.31;100.00;98378.29;1379896;90;21998;-75
2023/11/28 07:53:29;;;;;;;33.10;17.63;;;;;;;1.31;100.00;98378.29;1385766;90;22182;-76
2023/11/28 07:55:56;;;;;;;52.80;23.47;;;;;;;1.27;100.00;98369.93;1380037;90;22527;-77
2023/11/28 07:58:22;;;;;;;41.53;21.23;;;;;;;1.30;100.00;98370.95;1380531;90;22592;-75
2023/11/28 08:00:48;;;;;;;43.13;19.50;;;;;;;1.30;100.00;98370.95;1380647;90;21783;-77
2023/11/28 08:03:14;;;;;;;27.13;16.87;;;;;;;1.26;100.00;98360.94;1386362;90;21686;-76
2023/11/28 08:05:40;;;;;;;23.90;16.73;;;;;;;1.26;100.00;98360.94;1509755;90;21721;-76
2023/11/28 08:08:06;;;;;;;23.80;15.93;;;;;;;1.26;100.00;98356.54;1380512;90;21884;-76
2023/11/28 08:10:33;;;;;;;20.47;13.50;;;;;;;1.25;100.00;98352.30;1380858;90;21627;-74
2023/11/28 08:12:59;;;;;;;22.97;14.57;;;;;;;1.24;100.00;98345.30;1380558;90;22014;-74
2023/11/28 08:15:25;;;;;;;20.63;13.27;;;;;;;1.26;100.00;98345.30;1368208;91;22089;-74
2023/11/28 08:17:51;;;;;;;22.97;15.60;;;;;;;1.27;100.00;98345.17;1380273;90;21747;-74
2023/11/28 08:20:17;;;;;;;26.73;17.40;;;;;;;1.23;100.00;98346.39;1380875;90;21684;-74
2023/11/28 08:22:43;;;;;;;25.53;16.70;;;;;;;1.22;100.00;98331.73;1380477;90;21975;-72
2023/11/28 08:25:09;;;;;;;28.10;17.00;;;;;;;1.22;100.00;98331.73;1380188;90;21683;-74
2023/11/28 08:27:37;;;;;;;31.40;18.57;;;;;;;1.30;100.00;98337.56;1363299;91;21851;-73
2023/11/28 08:30:05;;;;;;;24.43;16.33;;;;;;;1.30;100.00;98331.05;1394789;89;22613;-74
2023/11/28 08:32:31;;;;;;;29.03;17.67;;;;;;;1.24;100.00;98322.00;1533032;90;22038;-74
2023/11/28 08:34:57;;;;;;;28.57;16.00;;;;;;;1.24;100.00;98318.09;1380116;90;21987;-74
2023/11/28 08:37:23;;;;;;;28.90;16.73;;;;;;;1.30;100.00;98316.23;1386495;89;21792;-76
2023/11/28 08:39:51;;;;;;;37.33;17.77;;;;;;;1.30;100.00;98308.41;1380498;90;21988;-74
2023/11/28 08:42:17;;;;;;;41.63;19.47;;;;;;;1.29;100.00;98306.74;1378160;90;21981;-75
2023/11/28 08:44:43;;;;;;;39.10;18.13;;;;;;;1.29;100.00;98295.50;1380143;90;21792;-75
2023/11/28 08:47:10;;;;;;;41.00;19.47;;;;;;;1.35;100.00;98291.02;1380577;90;21787;-74
2023/11/28 08:49:36;;;;;;;28.97;14.97;;;;;;;1.35;100.00;98291.02;1380270;90;21943;-75
2023/11/28 08:52:03;;;;;;;25.10;15.60;;;;;;;1.38;100.00;98282.10;1380184;90;21728;-74
2023/11/28 08:54:29;;;;;;;33.10;16.90;;;;;;;1.34;100.00;98281.09;1379927;90;21765;-74
2023/11/28 08:56:56;;;;;;;25.90;16.50;;;;;;;1.32;100.00;98275.22;1379955;90;21697;-74
2023/11/28 08:59:22;;;;;;;28.53;16.17;;;;;;;1.29;100.00;98271.56;1385675;90;21984;-75
2023/11/28 09:01:48;;;;;;;27.70;17.93;;;;;;;1.35;100.00;98285.36;1536411;90;22054;-75
2023/11/28 09:04:14;;;;;;;25.90;17.20;;;;;;;1.35;100.00;98285.36;1450270;90;22026;-76
2023/11/28 09:06:40;;;;;;;28.17;17.97;;;;;;;1.34;100.00;98277.17;1459352;90;22920;-75
2023/11/28 09:09:09;;;;;;;32.27;20.27;;;;;;;1.45;100.00;98274.07;1453504;90;22131;-75
2023/11/28 09:11:35;;;;;;;37.87;23.10;;;;;;;1.43;100.00;98267.68;1456151;90;22009;-74
2023/11/28 09:14:01;;;;;;;46.83;25.03;;;;;;;1.43;100.00;98267.68;1458840;90;22800;-74
2023/11/28 09:16:27;;;;;;;40.83;21.57;;;;;;;1.43;100.00;98259.05;1452958;90;22835;-74
2023/11/28 09:18:53;;;;;;;24.83;17.30;;;;;;;1.45;100.00;98258.44;1454589;90;22148;-75
2023/11/28 09:21:19;;;;;;;23.97;16.90;;;;;;;1.43;100.00;98246.02;1451720;90;21855;-75
2023/11/28 09:23:46;;;;;;;25.13;17.27;;;;;;;1.43;100.00;98246.02;1452527;90;21929;-74
2023/11/28 09:26:12;;;;;;;23.93;15.27;;;;;;;1.41;100.00;98224.47;1453491;90;22133;-74
2023/11/28 09:28:38;;;;;;;22.90;15.37;;;;;;;1.41;100.00;98224.47;1455190;90;23189;-74
2023/11/28 09:31:05;;;;;;;20.67;12.97;;;;;;;1.48;100.00;98218.55;1452946;90;22259;-74
2023/11/28 09:33:34;;;;;;;23.57;17.70;;;;;;;1.49;100.00;98218.88;1448511;90;22967;-75
2023/11/28 09:36:00;;;;;;;21.77;14.93;;;;;;;1.59;100.00;98205.82;1453332;90;22110;-73
2023/11/28 09:38:27;;;;;;;23.10;14.57;;;;;;;1.59;100.00;98205.82;1453118;90;22251;-72
2023/11/28 09:40:54;;;;;;;31.30;14.80;;;;;;;1.88;100.00;98186.58;1447809;90;22118;-73
2023/11/28 09:43:28;;;;;;;26.43;15.37;;;;;;;1.88;100.00;98186.58;1446771;90;21916;-76
2023/11/28 09:45:57;;;;;;;30.00;17.53;;;;;;;2.07;100.00;98189.03;1376926;90;22942;-73
2023/11/28 09:48:28;;;;;;;23.80;15.95;;;;;;;2.05;100.00;98181.05;1480838;90;22121;-74
2023/11/28 09:50:54;;;;;;;;;;;;;;;2.03;100.00;98187.70;1459391;90;21443;-73
2023/11/28 09:53:24;;;;;;;30.90;18.20;;;;;;;1.92;100.00;98161.83;1430334;90;20284;-74
2023/11/28 09:55:52;;;;;;;52.50;28.00;;;;;;;1.92;100.00;98161.83;1437783;90;22108;-74
2023/11/28 09:58:21;;;;;;;31.83;20.03;;;;;;;1.93;100.00;98166.09;1454639;90;23044;-73
2023/11/28 10:00:48;;;;;;;29.87;18.07;;;;;;;1.92;100.00;98164.44;1453441;90;22121;-72
2023/11/28 10:03:15;;;;;;;26.63;17.70;;;;;;;1.87;100.00;98154.92;1454825;89;22091;-74
2023/11/28 10:05:41;;;;;;;26.17;17.20;;;;;;;1.87;100.00;98144.03;1446700;90;22697;-73
2023/11/28 10:08:10;;;;;;;23.93;15.53;;;;;;;1.90;100.00;98145.50;1454770;90;22081;-73
2023/11/28 10:10:39;;;;;;;25.47;16.20;;;;;;;1.90;100.00;98140.28;1454907;90;22154;-73
2023/11/28 10:13:05;;;;;;;24.03;17.13;;;;;;;1.92;100.00;98131.83;1426690;90;22155;-73
2023/11/28 10:15:31;;;;;;;26.20;16.83;;;;;;;1.94;100.00;98123.38;1454159;90;22058;-72
2023/11/28 10:17:57;;;;;;;23.83;14.97;;;;;;;1.96;100.00;98121.45;1433865;90;22123;-73
2023/11/28 10:20:27;;;;;;;22.80;14.03;;;;;;;2.00;100.00;98112.34;1456341;90;22132;-74
2023/11/28 10:22:53;;;;;;;19.13;13.23;;;;;;;2.01;100.00;98106.14;1458016;90;22203;-73
2023/11/28 10:25:24;;;;;;;25.17;14.87;;;;;;;1.99;100.00;98097.17;1454968;90;22058;-74
2023/11/28 10:27:57;;;;;;;60.37;40.33;;;;;;;1.98;100.00;98088.19;1430997;90;22162;-74
2023/11/28 10:30:21;;;;;;;31.67;21.40;;;;;;;2.01;100.00;98079.59;1435424;90;22166;-74
2023/11/28 10:32:51;;;;;;;23.73;15.43;;;;;;;2.05;100.00;98075.38;1449472;90;23134;-74
2023/11/28 10:35:17;;;;;;;18.77;12.70;;;;;;;2.10;100.00;98068.73;1451966;90;22178;-74
2023/11/28 10:37:44;;;;;;;20.23;12.30;;;;;;;2.13;100.00;98067.59;1458163;90;21414;-74
2023/11/28 10:40:13;;;;;;;22.10;14.77;;;;;;;2.13;100.00;98061.91;1434607;90;22095;-75
2023/11/28 10:42:42;;;;;;;28.70;14.63;;;;;;;2.13;100.00;98054.08;1452191;90;22170;-73
2023/11/28 10:45:10;;;;;;;24.53;15.87;;;;;;;2.15;100.00;98056.03;1450051;90;22123;-74
2023/11/28 10:47:40;;;;;;;27.80;15.80;;;;;;;2.13;100.00;98049.32;1456102;89;22133;-74
2023/11/28 10:50:09;;;;;;;24.13;16.47;;;;;;;2.11;100.00;98044.27;1457164;89;22145;-74
2023/11/28 10:52:37;;;;;;;27.47;18.50;;;;;;;2.07;100.00;98041.61;1445497;90;22969;-74
2023/11/28 10:55:11;;;;;;;30.90;19.07;;;;;;;2.06;100.00;98032.65;1452982;90;22339;-76
2023/11/28 10:57:54;;;;;;;28.03;19.40;;;;;;;2.06;100.00;98038.68;1436003;90;22304;-77
2023/11/28 11:00:25;;;;;;;27.40;17.43;;;;;;;2.07;100.00;98031.17;1455537;90;23021;-76
2023/11/28 11:02:58;;;;;;;25.85;16.40;;;;;;;2.12;100.00;98032.03;1452758;90;22059;-74
2023/11/28 11:05:26;;;;;;;26.57;16.07;;;;;;;2.15;100.00;98026.52;1434151;90;21606;-75
2023/11/28 11:07:52;;;;;;;23.47;15.53;;;;;;;2.17;100.00;98021.48;1432158;90;22087;-74
2023/11/28 11:10:19;;;;;;;37.13;23.90;;;;;;;2.19;100.00;98018.23;1457676;90;22235;-76
2023/11/28 11:12:49;;;;;;;39.93;24.63;;;;;;;2.20;100.00;98017.25;1453088;90;22126;-76
2023/11/28 11:15:29;;;;;;;26.60;17.23;;;;;;;2.21;100.00;98008.44;1449738;90;23304;-75
2023/11/28 11:18:04;;;;;;;21.77;15.80;;;;;;;2.20;100.00;98002.90;1439340;90;22194;-76